sensor_id;sensor_type;location;lat;lon;timestamp;pressure;altitude;pressure_sealevel;temperature;humidity
77013;BME280;67260;53.130;17.982;2023-12-20T08:12:44;100181.48;;;6.16;87.89
77013;BME280;67260;53.130;17.982;2023-12-20T08:15:11;100182.59;;;6.50;87.18
77013;BME280;67260;53.130;17.982;2023-12-20T08:20:53;100178.47;;;7.68;84.53
77013;BME280;67260;53.130;17.982;2023-12-20T08:23:47;100180.85;;;7.40;83.84
77013;BME280;67260;53.130;17.982;2023-12-20T08:26:29;100177.10;;;7.16;84.17
77013;BME280;67260;53.130;17.982;2023-12-20T08:33:20;100171.09;;;10.60;79.04
77013;BME280;67260;53.130;17.982;2023-12-20T08:40:02;100170.09;;;10.30;78.04
77013;BME280;67260;53.130;17.982;2023-12-20T08:43:38;100169.48;;;9.51;79.04
77013;BME280;67260;53.130;17.982;2023-12-20T08:47:10;100170.16;;;8.51;80.69
77013;BME280;67260;53.130;17.982;2023-12-20T08:49:39;100170.12;;;7.98;81.64
77013;BME280;67260;53.130;17.982;2023-12-20T08:52:06;100169.16;;;7.51;81.67
77013;BME280;67260;53.130;17.982;2023-12-20T08:54:37;100166.11;;;7.03;81.60
77013;BME280;67260;53.130;17.982;2023-12-20T08:57:04;100163.31;;;6.62;82.32
77013;BME280;67260;53.130;17.982;2023-12-20T08:59:54;100164.33;;;6.31;83.66
77013;BME280;67260;53.130;17.982;2023-12-20T09:02:21;100163.16;;;6.06;83.94
77013;BME280;67260;53.130;17.982;2023-12-20T09:04:48;100164.79;;;5.77;84.37
77013;BME280;67260;53.130;17.982;2023-12-20T09:07:23;100160.23;;;5.68;84.43
77013;BME280;67260;53.130;17.982;2023-12-20T09:09:54;100158.20;;;5.88;85.24
77013;BME280;67260;53.130;17.982;2023-12-20T09:12:21;100153.58;;;5.92;84.81
77013;BME280;67260;53.130;17.982;2023-12-20T09:14:49;100149.11;;;5.91;85.42
77013;BME280;67260;53.130;17.982;2023-12-20T09:17:43;100147.02;;;5.98;85.46
77013;BME280;67260;53.130;17.982;2023-12-20T09:20:10;100147.88;;;6.02;84.68
77013;BME280;67260;53.130;17.982;2023-12-20T09:22:41;100144.65;;;6.39;84.58
77013;BME280;67260;53.130;17.982;2023-12-20T09:25:10;100138.96;;;7.45;83.76
77013;BME280;67260;53.130;17.982;2023-12-20T09:27:38;100135.11;;;9.14;81.86
77013;BME280;67260;53.130;17.982;2023-12-20T09:30:09;100133.86;;;11.90;77.51
77013;BME280;67260;53.130;17.982;2023-12-20T09:32:50;100132.08;;;12.35;75.40
77013;BME280;67260;53.130;17.982;2023-12-20T09:35:24;100135.92;;;11.21;72.57
77013;BME280;67260;53.130;17.982;2023-12-20T09:37:54;100137.27;;;10.26;75.42
77013;BME280;67260;53.130;17.982;2023-12-20T09:40:26;100135.05;;;9.45;76.16
77013;BME280;67260;53.130;17.982;2023-12-20T09:43:03;100137.95;;;9.03;77.56
77013;BME280;67260;53.130;17.982;2023-12-20T09:45:32;100139.84;;;8.65;77.54
77013;BME280;67260;53.130;17.982;2023-12-20T09:48:05;100129.27;;;8.39;77.29
77013;BME280;67260;53.130;17.982;2023-12-20T09:50:32;100121.58;;;8.39;77.83
77013;BME280;67260;53.130;17.982;2023-12-20T10:01:37;100094.45;;;7.67;78.46
77013;BME280;67260;53.130;17.982;2023-12-20T10:04:19;100090.86;;;7.64;77.94
77013;BME280;67260;53.130;17.982;2023-12-20T10:10:39;100086.52;;;7.73;79.12
77013;BME280;67260;53.130;17.982;2023-12-20T10:17:07;100080.97;;;8.42;76.63
77013;BME280;67260;53.130;17.982;2023-12-20T10:19:34;100074.62;;;8.39;77.56
77013;BME280;67260;53.130;17.982;2023-12-20T10:22:10;100071.92;;;8.26;77.66
77013;BME280;67260;53.130;17.982;2023-12-20T10:31:59;100057.26;;;7.39;77.83
77013;BME280;67260;53.130;17.982;2023-12-20T10:34:26;100055.52;;;7.21;78.70
77013;BME280;67260;53.130;17.982;2023-12-20T10:37:15;100051.66;;;7.00;77.78
77013;BME280;67260;53.130;17.982;2023-12-20T10:39:46;100042.46;;;6.82;79.18
77013;BME280;67260;53.130;17.982;2023-12-20T10:42:41;100043.02;;;6.67;78.47
77013;BME280;67260;53.130;17.982;2023-12-20T10:45:48;100040.98;;;6.52;79.18
77013;BME280;67260;53.130;17.982;2023-12-20T10:48:16;100041.08;;;6.46;79.75
77013;BME280;67260;53.130;17.982;2023-12-20T10:50:56;100033.48;;;6.43;80.21
77013;BME280;67260;53.130;17.982;2023-12-20T10:54:04;100036.08;;;6.39;80.08
77013;BME280;67260;53.130;17.982;2023-12-20T10:56:33;100032.27;;;6.29;80.68
77013;BME280;67260;53.130;17.982;2023-12-20T10:59:51;100026.69;;;6.19;80.79
77013;BME280;67260;53.130;17.982;2023-12-20T11:02:40;100022.70;;;6.10;80.45
77013;BME280;67260;53.130;17.982;2023-12-20T11:09:24;100007.39;;;5.93;80.87
77013;BME280;67260;53.130;17.982;2023-12-20T11:13:03;99997.61;;;5.82;81.30
77013;BME280;67260;53.130;17.982;2023-12-20T11:24:21;99971.39;;;5.65;82.31
77013;BME280;67260;53.130;17.982;2023-12-20T11:27:27;99966.51;;;5.63;82.45
77013;BME280;67260;53.130;17.982;2023-12-20T11:30:22;99954.95;;;5.62;82.24
77013;BME280;67260;53.130;17.982;2023-12-20T11:32:51;99952.55;;;5.62;82.01
77013;BME280;67260;53.130;17.982;2023-12-20T11:46:25;99922.63;;;5.73;82.94
77013;BME280;67260;53.130;17.982;2023-12-20T11:48:54;99926.80;;;5.73;82.70
77013;BME280;67260;53.130;17.982;2023-12-20T11:51:21;99922.85;;;5.71;82.81
77013;BME280;67260;53.130;17.982;2023-12-20T11:54:02;99921.72;;;5.70;82.80
77013;BME280;67260;53.130;17.982;2023-12-20T11:56:29;99916.17;;;5.65;82.78
77013;BME280;67260;53.130;17.982;2023-12-20T11:58:59;99911.39;;;5.63;83.20
77013;BME280;67260;53.130;17.982;2023-12-20T12:05:19;99898.03;;;5.60;83.20
77013;BME280;67260;53.130;17.982;2023-12-20T12:47:19;99838.10;;;5.14;85.65
77013;BME280;67260;53.130;17.982;2023-12-20T12:49:48;99834.83;;;5.09;85.61
77013;BME280;67260;53.130;17.982;2023-12-20T12:52:24;99829.86;;;5.05;85.91
77013;BME280;67260;53.130;17.982;2023-12-20T12:54:50;99829.32;;;5.03;86.21
77013;BME280;67260;53.130;17.982;2023-12-20T12:57:17;99823.23;;;5.01;86.20
77013;BME280;67260;53.130;17.982;2023-12-20T13:00:26;99822.66;;;5.00;86.27
77013;BME280;67260;53.130;17.982;2023-12-20T13:02:56;99825.44;;;4.98;86.20
77013;BME280;67260;53.130;17.982;2023-12-20T13:05:26;99823.51;;;4.93;86.63
77013;BME280;67260;53.130;17.982;2023-12-20T13:08:06;99824.02;;;4.92;86.52
77013;BME280;67260;53.130;17.982;2023-12-20T13:10:33;99823.60;;;4.89;86.64
77013;BME280;67260;53.130;17.982;2023-12-20T13:12:59;99822.23;;;4.88;86.75
77013;BME280;67260;53.130;17.982;2023-12-20T13:15:26;99818.84;;;4.86;87.04
77013;BME280;67260;53.130;17.982;2023-12-20T13:17:53;99814.25;;;4.83;87.07
77013;BME280;67260;53.130;17.982;2023-12-20T13:20:19;99812.20;;;4.81;87.08
77013;BME280;67260;53.130;17.982;2023-12-20T13:22:46;99806.81;;;4.81;87.24
77013;BME280;67260;53.130;17.982;2023-12-20T13:25:13;99804.15;;;4.81;87.11
77013;BME280;67260;53.130;17.982;2023-12-20T13:27:41;99798.02;;;4.80;86.80
77013;BME280;67260;53.130;17.982;2023-12-20T13:30:08;99803.20;;;4.79;86.73
77013;BME280;67260;53.130;17.982;2023-12-20T13:32:35;99803.93;;;4.78;86.77
77013;BME280;67260;53.130;17.982;2023-12-20T13:35:02;99807.14;;;4.81;86.76
77013;BME280;67260;53.130;17.982;2023-12-20T13:37:30;99809.87;;;4.83;86.42
77013;BME280;67260;53.130;17.982;2023-12-20T13:39:59;99806.88;;;4.84;86.63
77013;BME280;67260;53.130;17.982;2023-12-20T13:42:25;99803.96;;;4.84;86.61
77013;BME280;67260;53.130;17.982;2023-12-20T13:44:54;99795.33;;;4.86;86.60
77013;BME280;67260;53.130;17.982;2023-12-20T13:47:20;99791.35;;;4.87;86.67
77013;BME280;67260;53.130;17.982;2023-12-20T13:49:48;99786.25;;;4.87;86.76
77013;BME280;67260;53.130;17.982;2023-12-20T13:52:16;99787.30;;;4.86;86.67
77013;BME280;67260;53.130;17.982;2023-12-20T13:54:45;99792.16;;;4.86;86.20
77013;BME280;67260;53.130;17.982;2023-12-20T13:57:12;99788.91;;;4.85;86.57
77013;BME280;67260;53.130;17.982;2023-12-20T13:59:39;99785.34;;;4.84;86.54
77013;BME280;67260;53.130;17.982;2023-12-20T14:02:09;99779.07;;;4.84;86.37
77013;BME280;67260;53.130;17.982;2023-12-20T14:04:36;99769.88;;;4.83;86.43
77013;BME280;67260;53.130;17.982;2023-12-20T14:07:02;99765.73;;;4.82;86.18
77013;BME280;67260;53.130;17.982;2023-12-20T14:09:29;99763.27;;;4.82;86.15
77013;BME280;67260;53.130;17.982;2023-12-20T14:12:17;99760.20;;;4.82;86.01
77013;BME280;67260;53.130;17.982;2023-12-20T14:14:47;99751.16;;;4.81;85.98
77013;BME280;67260;53.130;17.982;2023-12-20T14:17:23;99754.00;;;4.81;85.78
77013;BME280;67260;53.130;17.982;2023-12-20T14:19:58;99752.73;;;4.80;85.96
77013;BME280;67260;53.130;17.982;2023-12-20T14:22:25;99756.08;;;4.78;85.84
77013;BME280;67260;53.130;17.982;2023-12-20T14:24:51;99752.55;;;4.77;86.12
77013;BME280;67260;53.130;17.982;2023-12-20T14:27:19;99755.42;;;4.77;86.05
77013;BME280;67260;53.130;17.982;2023-12-20T14:29:51;99755.10;;;4.77;86.12
77013;BME280;67260;53.130;17.982;2023-12-20T14:36:34;99753.91;;;4.75;86.23
77013;BME280;67260;53.130;17.982;2023-12-20T14:39:01;99750.36;;;4.75;85.90
77013;BME280;67260;53.130;17.982;2023-12-20T14:45:51;99749.91;;;4.76;86.01
77013;BME280;67260;53.130;17.982;2023-12-20T14:49:05;99755.42;;;4.77;86.05
77013;BME280;67260;53.130;17.982;2023-12-20T14:56:02;99750.85;;;4.82;85.88
77013;BME280;67260;53.130;17.982;2023-12-20T14:58:44;99738.73;;;4.82;85.80
77013;BME280;67260;53.130;17.982;2023-12-20T15:01:11;99732.52;;;4.83;85.41
77013;BME280;67260;53.130;17.982;2023-12-20T15:03:41;99722.55;;;4.83;85.47
77013;BME280;67260;53.130;17.982;2023-12-20T15:06:07;99714.30;;;4.83;85.28
77013;BME280;67260;53.130;17.982;2023-12-20T15:08:55;99707.70;;;4.82;85.24
77013;BME280;67260;53.130;17.982;2023-12-20T15:11:29;99703.24;;;4.83;85.16
77013;BME280;67260;53.130;17.982;2023-12-20T15:14:01;99694.41;;;4.82;85.07
77013;BME280;67260;53.130;17.982;2023-12-20T15:25:08;99687.84;;;4.80;85.61
77013;BME280;67260;53.130;17.982;2023-12-20T15:28:07;99681.64;;;4.78;85.86
77013;BME280;67260;53.130;17.982;2023-12-20T16:18:56;99644.36;;;4.23;89.07
77013;BME280;67260;53.130;17.982;2023-12-20T16:22:03;99639.34;;;4.21;88.84
77013;BME280;67260;53.130;17.982;2023-12-20T16:33:08;99648.45;;;4.22;88.64
77013;BME280;67260;53.130;17.982;2023-12-20T16:35:51;99642.84;;;4.25;88.56
77013;BME280;67260;53.130;17.982;2023-12-20T16:41:54;99637.90;;;4.28;88.53
77013;BME280;67260;53.130;17.982;2023-12-20T16:44:21;99633.98;;;4.31;88.09
77013;BME280;67260;53.130;17.982;2023-12-20T16:47:27;99636.73;;;4.32;88.00
77013;BME280;67260;53.130;17.982;2023-12-20T16:50:08;99640.48;;;4.35;87.80
77013;BME280;67260;53.130;17.982;2023-12-20T16:52:39;99648.58;;;4.37;87.52
77013;BME280;67260;53.130;17.982;2023-12-20T16:55:09;99646.61;;;4.38;87.50
77013;BME280;67260;53.130;17.982;2023-12-20T16:57:46;99658.43;;;4.41;87.44
77013;BME280;67260;53.130;17.982;2023-12-20T17:00:30;99667.79;;;4.42;87.03
77013;BME280;67260;53.130;17.982;2023-12-20T17:02:58;99670.33;;;4.41;87.28
77013;BME280;67260;53.130;17.982;2023-12-20T17:05:28;99668.88;;;4.41;87.15
77013;BME280;67260;53.130;17.982;2023-12-20T17:07:55;99677.92;;;4.39;86.84
77013;BME280;67260;53.130;17.982;2023-12-20T17:10:31;99687.77;;;4.36;86.82
77013;BME280;67260;53.130;17.982;2023-12-20T17:17:22;99699.62;;;4.24;87.04
77013;BME280;67260;53.130;17.982;2023-12-20T17:20:40;99699.24;;;4.16;87.11
77013;BME280;67260;53.130;17.982;2023-12-20T17:23:35;99703.11;;;4.07;86.84
77013;BME280;67260;53.130;17.982;2023-12-20T17:26:47;99702.95;;;3.99;86.90
77013;BME280;67260;53.130;17.982;2023-12-20T17:36:26;99690.23;;;3.69;86.75
77013;BME280;67260;53.130;17.982;2023-12-20T17:42:39;99693.91;;;3.46;86.66
77013;BME280;67260;53.130;17.982;2023-12-20T18:02:52;99703.19;;;2.86;87.23
77013;BME280;67260;53.130;17.982;2023-12-20T18:05:21;99703.45;;;2.81;87.36
77013;BME280;67260;53.130;17.982;2023-12-20T18:08:29;99708.64;;;2.77;87.31
77013;BME280;67260;53.130;17.982;2023-12-20T18:11:02;99714.83;;;2.75;87.39
77013;BME280;67260;53.130;17.982;2023-12-20T18:13:59;99717.45;;;2.77;87.55
77013;BME280;67260;53.130;17.982;2023-12-20T18:16:26;99717.05;;;2.78;87.72
77013;BME280;67260;53.130;17.982;2023-12-20T18:18:54;99722.11;;;2.80;87.65
77013;BME280;67260;53.130;17.982;2023-12-20T18:24:09;99722.79;;;2.88;87.63
77013;BME280;67260;53.130;17.982;2023-12-20T18:26:36;99721.75;;;2.92;87.49
77013;BME280;67260;53.130;17.982;2023-12-20T18:29:05;99724.89;;;2.98;87.42
77013;BME280;67260;53.130;17.982;2023-12-20T18:31:35;99726.39;;;3.04;87.36
77013;BME280;67260;53.130;17.982;2023-12-20T18:34:01;99727.11;;;3.11;87.18
77013;BME280;67260;53.130;17.982;2023-12-20T18:36:28;99725.77;;;3.18;87.09
77013;BME280;67260;53.130;17.982;2023-12-20T18:38:55;99729.14;;;3.22;86.70
77013;BME280;67260;53.130;17.982;2023-12-20T18:41:27;99727.98;;;3.24;86.68
77013;BME280;67260;53.130;17.982;2023-12-20T18:43:57;99726.21;;;3.27;86.64
77013;BME280;67260;53.130;17.982;2023-12-20T18:46:44;99729.90;;;3.28;86.53
77013;BME280;67260;53.130;17.982;2023-12-20T18:52:03;99734.85;;;3.32;86.41
77013;BME280;67260;53.130;17.982;2023-12-20T18:54:33;99735.39;;;3.36;86.33
77013;BME280;67260;53.130;17.982;2023-12-20T18:56:59;99735.64;;;3.39;86.02
77013;BME280;67260;53.130;17.982;2023-12-20T18:59:26;99737.42;;;3.43;85.98
77013;BME280;67260;53.130;17.982;2023-12-20T19:01:57;99744.09;;;3.45;85.70
77013;BME280;67260;53.130;17.982;2023-12-20T19:04:24;99740.61;;;3.43;85.49
77013;BME280;67260;53.130;17.982;2023-12-20T19:06:52;99739.37;;;3.45;85.44
77013;BME280;67260;53.130;17.982;2023-12-20T19:09:24;99743.91;;;3.46;85.19
77013;BME280;67260;53.130;17.982;2023-12-20T19:11:53;99746.45;;;3.45;84.95
77013;BME280;67260;53.130;17.982;2023-12-20T19:14:20;99742.20;;;3.46;84.66
77013;BME280;67260;53.130;17.982;2023-12-20T19:16:48;99742.90;;;3.46;84.63
77013;BME280;67260;53.130;17.982;2023-12-20T19:19:16;99747.95;;;3.46;84.90
77013;BME280;67260;53.130;17.982;2023-12-20T19:21:43;99742.54;;;3.49;84.74
77013;BME280;67260;53.130;17.982;2023-12-20T19:24:10;99747.00;;;3.51;84.70
77013;BME280;67260;53.130;17.982;2023-12-20T19:30:29;99753.41;;;3.57;84.01
77013;BME280;67260;53.130;17.982;2023-12-20T19:32:56;99756.21;;;3.58;83.90
77013;BME280;67260;53.130;17.982;2023-12-20T19:35:23;99754.77;;;3.59;83.88
77013;BME280;67260;53.130;17.982;2023-12-20T19:37:49;99755.77;;;3.59;83.34
77013;BME280;67260;53.130;17.982;2023-12-20T19:40:19;99752.48;;;3.57;83.86
77013;BME280;67260;53.130;17.982;2023-12-20T19:42:46;99753.16;;;3.56;83.64
77013;BME280;67260;53.130;17.982;2023-12-20T19:45:16;99750.33;;;3.52;83.81
77013;BME280;67260;53.130;17.982;2023-12-20T19:47:49;99745.61;;;3.49;83.82
77013;BME280;67260;53.130;17.982;2023-12-20T19:50:16;99742.63;;;3.46;83.93
77013;BME280;67260;53.130;17.982;2023-12-20T19:52:45;99742.12;;;3.45;83.99
77013;BME280;67260;53.130;17.982;2023-12-20T19:55:20;99746.41;;;3.42;83.51
77013;BME280;67260;53.130;17.982;2023-12-20T19:58:02;99749.29;;;3.36;83.53
77013;BME280;67260;53.130;17.982;2023-12-20T20:00:44;99749.19;;;3.32;83.74
77013;BME280;67260;53.130;17.982;2023-12-20T20:03:15;99754.64;;;3.25;84.01
77013;BME280;67260;53.130;17.982;2023-12-20T20:05:48;99754.05;;;3.20;84.03
77013;BME280;67260;53.130;17.982;2023-12-20T20:08:43;99752.10;;;3.16;83.98
77013;BME280;67260;53.130;17.982;2023-12-20T20:11:10;99754.41;;;3.11;83.37
77013;BME280;67260;53.130;17.982;2023-12-20T20:17:09;99759.73;;;3.11;83.49
77013;BME280;67260;53.130;17.982;2023-12-20T20:19:39;99760.46;;;3.08;83.55
77013;BME280;67260;53.130;17.982;2023-12-20T20:22:13;99762.11;;;3.04;83.79
77013;BME280;67260;53.130;17.982;2023-12-20T20:24:45;99763.85;;;3.01;83.83
77013;BME280;67260;53.130;17.982;2023-12-20T20:27:12;99763.61;;;2.99;83.83
77013;BME280;67260;53.130;17.982;2023-12-20T20:29:43;99768.19;;;2.97;84.08
77013;BME280;67260;53.130;17.982;2023-12-20T20:32:18;99775.73;;;2.94;84.02
77013;BME280;67260;53.130;17.982;2023-12-20T20:34:48;99774.81;;;2.91;84.07
77013;BME280;67260;53.130;17.982;2023-12-20T20:37:16;99771.35;;;2.89;84.20
77013;BME280;67260;53.130;17.982;2023-12-20T20:39:45;99777.48;;;2.87;84.33
77013;BME280;67260;53.130;17.982;2023-12-20T20:42:15;99771.70;;;2.85;84.31
77013;BME280;67260;53.130;17.982;2023-12-20T20:44:55;99772.09;;;2.85;84.43
77013;BME280;67260;53.130;17.982;2023-12-20T20:47:23;99773.27;;;2.84;84.35
77013;BME280;67260;53.130;17.982;2023-12-20T20:49:50;99778.11;;;2.82;84.45
77013;BME280;67260;53.130;17.982;2023-12-20T20:52:18;99777.71;;;2.83;84.65
77013;BME280;67260;53.130;17.982;2023-12-20T20:54:49;99780.17;;;2.86;84.53
77013;BME280;67260;53.130;17.982;2023-12-20T20:57:19;99778.38;;;2.89;84.48
77013;BME280;67260;53.130;17.982;2023-12-20T21:00:12;99788.80;;;2.93;84.59
77013;BME280;67260;53.130;17.982;2023-12-20T21:02:49;99786.09;;;2.98;83.94
77013;BME280;67260;53.130;17.982;2023-12-20T21:05:22;99783.79;;;3.01;84.00
77013;BME280;67260;53.130;17.982;2023-12-20T21:07:49;99786.13;;;3.04;83.82
77013;BME280;67260;53.130;17.982;2023-12-20T21:10:49;99787.84;;;3.05;84.04
77013;BME280;67260;53.130;17.982;2023-12-20T21:13:37;99785.70;;;3.06;83.89
77013;BME280;67260;53.130;17.982;2023-12-20T21:16:08;99789.25;;;3.05;83.69
77013;BME280;67260;53.130;17.982;2023-12-20T21:18:40;99796.23;;;3.05;84.06
77013;BME280;67260;53.130;17.982;2023-12-20T21:21:18;99794.83;;;3.06;83.96
77013;BME280;67260;53.130;17.982;2023-12-20T21:23:45;99794.88;;;3.04;84.06
77013;BME280;67260;53.130;17.982;2023-12-20T21:26:12;99796.38;;;3.01;84.04
77013;BME280;67260;53.130;17.982;2023-12-20T21:28:56;99798.92;;;2.99;84.02
77013;BME280;67260;53.130;17.982;2023-12-20T21:31:23;99797.35;;;2.99;84.15
77013;BME280;67260;53.130;17.982;2023-12-20T21:33:50;99797.35;;;2.99;84.39
77013;BME280;67260;53.130;17.982;2023-12-20T21:36:17;99794.34;;;3.00;84.34
77013;BME280;67260;53.130;17.982;2023-12-20T21:38:52;99794.33;;;3.02;84.40
77013;BME280;67260;53.130;17.982;2023-12-20T21:41:19;99787.19;;;3.05;84.47
77013;BME280;67260;53.130;17.982;2023-12-20T21:43:47;99786.70;;;3.10;84.52
77013;BME280;67260;53.130;17.982;2023-12-20T21:53:53;99788.50;;;3.20;84.06
77013;BME280;67260;53.130;17.982;2023-12-20T21:56:30;99782.94;;;3.21;83.40
77013;BME280;67260;53.130;17.982;2023-12-20T21:59:11;99786.47;;;3.22;83.39
77013;BME280;67260;53.130;17.982;2023-12-20T22:01:42;99779.84;;;3.22;83.57
77013;BME280;67260;53.130;17.982;2023-12-20T22:07:22;99783.53;;;3.18;83.54
77013;BME280;67260;53.130;17.982;2023-12-20T22:10:00;99778.86;;;3.16;83.49
77013;BME280;67260;53.130;17.982;2023-12-20T22:12:52;99779.77;;;3.13;83.69
77013;BME280;67260;53.130;17.982;2023-12-20T22:15:20;99769.73;;;3.09;83.67
77013;BME280;67260;53.130;17.982;2023-12-20T22:17:47;99766.20;;;3.08;83.87
77013;BME280;67260;53.130;17.982;2023-12-20T22:20:14;99765.00;;;3.06;83.76
77013;BME280;67260;53.130;17.982;2023-12-20T22:22:41;99764.61;;;3.01;84.07
77013;BME280;67260;53.130;17.982;2023-12-20T22:25:08;99764.00;;;2.96;84.29
77013;BME280;67260;53.130;17.982;2023-12-20T22:27:38;99756.16;;;2.91;84.19
77013;BME280;67260;53.130;17.982;2023-12-20T22:30:08;99753.88;;;2.86;84.51
77013;BME280;67260;53.130;17.982;2023-12-20T22:36:35;99744.39;;;2.86;84.75
77013;BME280;67260;53.130;17.982;2023-12-20T22:39:02;99738.77;;;2.84;84.71
77013;BME280;67260;53.130;17.982;2023-12-20T22:41:38;99738.67;;;2.82;84.88
77013;BME280;67260;53.130;17.982;2023-12-20T22:48:12;99736.04;;;2.86;85.39
77013;BME280;67260;53.130;17.982;2023-12-20T22:54:00;99721.53;;;2.91;85.60
77013;BME280;67260;53.130;17.982;2023-12-20T22:56:35;99714.30;;;2.90;85.76
77013;BME280;67260;53.130;17.982;2023-12-20T22:59:02;99714.13;;;2.90;85.93
77013;BME280;67260;53.130;17.982;2023-12-20T23:01:29;99718.05;;;2.90;86.19
77013;BME280;67260;53.130;17.982;2023-12-20T23:03:56;99712.23;;;2.89;86.31
77013;BME280;67260;53.130;17.982;2023-12-20T23:06:26;99711.02;;;2.90;86.37
77013;BME280;67260;53.130;17.982;2023-12-20T23:09:10;99707.82;;;2.88;86.46
77013;BME280;67260;53.130;17.982;2023-12-20T23:12:12;99708.49;;;2.87;86.44
77013;BME280;67260;53.130;17.982;2023-12-20T23:18:41;99706.51;;;2.86;86.94
77013;BME280;67260;53.130;17.982;2023-12-20T23:21:34;99708.20;;;2.90;86.99
77013;BME280;67260;53.130;17.982;2023-12-20T23:24:43;99711.21;;;2.92;86.86
77013;BME280;67260;53.130;17.982;2023-12-20T23:28:03;99709.39;;;2.97;86.66
77013;BME280;67260;53.130;17.982;2023-12-20T23:33:17;99711.80;;;3.09;86.33
77013;BME280;67260;53.130;17.982;2023-12-20T23:35:44;99727.96;;;3.16;86.27
77013;BME280;67260;53.130;17.982;2023-12-20T23:38:11;99732.39;;;3.21;86.18
77013;BME280;67260;53.130;17.982;2023-12-20T23:40:53;99725.84;;;3.23;86.07
77013;BME280;67260;53.130;17.982;2023-12-20T23:43:27;99709.97;;;3.17;85.58
77013;BME280;67260;53.130;17.982;2023-12-20T23:45:56;99711.20;;;3.10;85.64
77013;BME280;67260;53.130;17.982;2023-12-20T23:48:23;99707.39;;;3.05;85.74
77013;BME280;67260;53.130;17.982;2023-12-20T23:50:53;99705.30;;;3.02;86.02
77013;BME280;67260;53.130;17.982;2023-12-20T23:53:37;99697.88;;;3.00;85.97
77013;BME280;67260;53.130;17.982;2023-12-20T23:56:07;99698.35;;;2.99;86.00
77013;BME280;67260;53.130;17.982;2023-12-20T23:58:48;99691.06;;;2.97;85.68
